createdAt,value
2019-02-27T00:00:17.351Z,0.00
2019-02-27T00:01:17.611Z,0.00
2019-02-27T00:02:17.315Z,0.00
2019-02-27T00:03:17.333Z,0.00
2019-02-27T00:04:17.291Z,0.00
2019-02-27T00:05:17.292Z,0.00
2019-02-27T00:06:17.273Z,0.00
2019-02-27T00:07:20.804Z,0.00
2019-02-27T00:08:17.350Z,0.00
2019-02-27T00:09:17.241Z,0.00
2019-02-27T00:10:17.237Z,0.00
2019-02-27T00:11:17.260Z,0.00
2019-02-27T00:12:19.366Z,0.00
2019-02-27T00:13:17.223Z,0.00
2019-02-27T00:14:17.187Z,0.00
2019-02-27T00:15:17.175Z,0.00
2019-02-27T00:16:17.169Z,0.00
2019-02-27T00:17:18.215Z,0.00
2019-02-27T00:18:17.160Z,0.00
2019-02-27T00:19:17.125Z,0.00
2019-02-27T00:20:17.112Z,0.00
2019-02-27T00:21:17.107Z,0.00
2019-02-27T00:22:17.639Z,0.00
2019-02-27T00:23:17.099Z,0.00
2019-02-27T00:24:17.091Z,0.00
2019-02-27T00:25:17.061Z,0.00
2019-02-27T00:26:17.047Z,0.00
2019-02-27T00:27:17.050Z,0.00
2019-02-27T00:28:17.043Z,0.00
2019-02-27T00:29:17.030Z,0.00
2019-02-27T00:30:16.998Z,0.00
2019-02-27T00:31:16.989Z,0.00
2019-02-27T00:32:18.659Z,0.00
2019-02-27T00:33:16.985Z,0.00
2019-02-27T00:34:16.971Z,0.00
2019-02-27T00:35:16.954Z,0.00
2019-02-27T00:36:16.935Z,0.00
2019-02-27T00:37:19.037Z,0.00
2019-02-27T00:38:16.926Z,0.00
2019-02-27T00:39:16.921Z,0.00
2019-02-27T00:40:16.900Z,0.00
2019-02-27T00:41:16.887Z,0.00
2019-02-27T00:42:19.509Z,0.00
2019-02-27T00:43:16.879Z,0.00
2019-02-27T00:44:16.848Z,0.00
2019-02-27T00:45:16.847Z,0.00
2019-02-27T00:46:16.830Z,0.00
2019-02-27T00:47:17.054Z,0.00
2019-02-27T00:48:16.804Z,0.00
2019-02-27T00:49:16.802Z,0.00
2019-02-27T00:50:16.778Z,0.00
2019-02-27T00:51:16.766Z,0.00
2019-02-27T00:52:18.389Z,0.00
2019-02-27T00:53:16.742Z,0.00
2019-02-27T00:54:16.748Z,0.00
2019-02-27T00:55:16.732Z,0.00
2019-02-27T00:56:16.718Z,0.00
2019-02-27T00:57:20.589Z,0.00
2019-02-27T00:58:16.704Z,0.00
2019-02-27T00:59:16.688Z,0.00
2019-02-27T01:00:16.659Z,0.00
2019-02-27T01:01:16.654Z,0.00
2019-02-27T01:02:19.973Z,0.00
2019-02-27T01:03:16.641Z,0.00
2019-02-27T01:04:16.643Z,0.00
2019-02-27T01:05:16.625Z,0.00
2019-02-27T01:06:16.650Z,0.00
2019-02-27T01:07:20.234Z,0.00
2019-02-27T01:08:16.594Z,0.00
2019-02-27T01:09:16.597Z,0.00
2019-02-27T01:10:16.557Z,0.00
2019-02-27T01:11:18.397Z,0.00
2019-02-27T01:12:16.536Z,0.00
2019-02-27T01:13:16.516Z,0.00
2019-02-27T01:14:16.530Z,0.00
2019-02-27T01:15:16.501Z,0.00
2019-02-27T01:16:17.260Z,0.00
2019-02-27T01:17:16.481Z,0.00
2019-02-27T01:18:16.478Z,0.00
2019-02-27T01:19:16.500Z,0.00
2019-02-27T01:20:16.475Z,0.00
2019-02-27T01:21:19.187Z,0.00
2019-02-27T01:22:16.423Z,0.00
2019-02-27T01:23:16.410Z,0.00
2019-02-27T01:24:17.416Z,0.00
2019-02-27T01:25:16.408Z,0.00
2019-02-27T01:26:16.380Z,0.00
2019-02-27T01:27:16.378Z,0.00
2019-02-27T01:28:16.373Z,0.00
2019-02-27T01:29:18.105Z,0.00
2019-02-27T01:30:16.331Z,0.00
2019-02-27T01:31:16.335Z,0.00
2019-02-27T01:32:16.311Z,0.00
2019-02-27T01:33:16.306Z,0.00
2019-02-27T01:34:16.297Z,0.00
2019-02-27T01:35:18.781Z,0.00
2019-02-27T01:36:16.282Z,0.00
2019-02-27T01:37:16.262Z,0.00
2019-02-27T01:38:16.250Z,0.00
2019-02-27T01:39:16.243Z,0.00
2019-02-27T01:40:17.940Z,0.00
2019-02-27T01:41:16.208Z,0.00
2019-02-27T01:42:16.212Z,0.00
2019-02-27T01:43:16.193Z,0.00
2019-02-27T01:44:16.181Z,0.00
2019-02-27T01:45:20.596Z,0.00
2019-02-27T01:46:16.154Z,0.00
2019-02-27T01:47:16.150Z,0.00
2019-02-27T01:48:16.128Z,0.00
2019-02-27T01:49:16.792Z,0.00
2019-02-27T01:50:16.142Z,0.00
2019-02-27T01:51:16.121Z,0.00
2019-02-27T01:52:16.082Z,0.00
2019-02-27T01:53:16.080Z,0.00
2019-02-27T01:54:16.063Z,0.00
2019-02-27T01:55:16.071Z,0.00
2019-02-27T01:56:16.040Z,0.00
2019-02-27T01:57:16.020Z,0.00
2019-02-27T01:58:16.020Z,0.00
2019-02-27T01:59:16.980Z,0.00
2019-02-27T02:00:16.009Z,0.00
2019-02-27T02:01:15.982Z,0.00
2019-02-27T02:02:15.982Z,0.00
2019-02-27T02:03:15.961Z,0.00
2019-02-27T02:04:20.034Z,0.00
2019-02-27T02:05:15.949Z,0.00
2019-02-27T02:06:15.945Z,0.00
2019-02-27T02:07:15.915Z,0.00
2019-02-27T02:08:15.910Z,0.00
2019-02-27T02:09:15.920Z,0.00
2019-02-27T02:10:15.892Z,0.00
2019-02-27T02:11:15.870Z,0.00
2019-02-27T02:12:15.867Z,0.00
2019-02-27T02:13:15.897Z,0.00
2019-02-27T02:14:15.838Z,0.00
2019-02-27T02:15:15.848Z,0.00
2019-02-27T02:16:15.838Z,0.00
2019-02-27T02:17:15.818Z,0.00
2019-02-27T02:18:15.790Z,0.00
2019-02-27T02:19:15.780Z,0.00
2019-02-27T02:20:15.784Z,0.00
2019-02-27T02:21:15.785Z,0.00
2019-02-27T02:22:15.748Z,0.00
2019-02-27T02:23:15.760Z,0.00
2019-02-27T02:24:15.731Z,0.00
2019-02-27T02:25:15.728Z,0.00
2019-02-27T02:26:15.729Z,0.00
2019-02-27T02:27:15.698Z,0.00
2019-02-27T02:28:15.694Z,0.00
2019-02-27T02:29:17.869Z,0.00
2019-02-27T02:30:15.665Z,0.00
2019-02-27T02:31:15.671Z,0.00
2019-02-27T02:32:17.503Z,0.00
2019-02-27T02:33:15.630Z,0.00
2019-02-27T02:34:15.621Z,0.00
2019-02-27T02:35:16.026Z,0.00
2019-02-27T02:36:15.619Z,0.00
2019-02-27T02:37:15.592Z,0.00
2019-02-27T02:38:15.563Z,0.00
2019-02-27T02:39:19.085Z,0.00
2019-02-27T02:40:15.549Z,0.00
2019-02-27T02:41:15.552Z,0.00
2019-02-27T02:42:15.533Z,0.00
2019-02-27T02:43:15.512Z,0.00
2019-02-27T02:44:20.697Z,0.00
2019-02-27T02:45:16.493Z,0.00
2019-02-27T02:46:15.501Z,0.00
2019-02-27T02:47:19.743Z,0.00
2019-02-27T02:48:16.482Z,0.00
2019-02-27T02:49:15.471Z,0.00
2019-02-27T02:50:17.852Z,0.00
2019-02-27T02:51:15.456Z,0.00
2019-02-27T02:52:15.415Z,0.00
2019-02-27T02:53:15.403Z,0.00
2019-02-27T02:54:15.388Z,0.00
2019-02-27T02:55:15.381Z,0.00
2019-02-27T02:56:15.378Z,0.00
2019-02-27T02:57:15.389Z,0.00
2019-02-27T02:58:15.365Z,0.00
2019-02-27T02:59:15.334Z,0.00
2019-02-27T03:00:15.343Z,0.00
2019-02-27T03:01:15.472Z,0.00
2019-02-27T03:02:15.309Z,0.00
2019-02-27T03:03:15.290Z,0.00
2019-02-27T03:04:15.279Z,0.00
2019-02-27T03:05:15.266Z,0.00
2019-02-27T03:06:15.302Z,0.00
2019-02-27T03:07:15.254Z,0.00
2019-02-27T03:08:19.953Z,0.00
2019-02-27T03:09:16.218Z,0.00
2019-02-27T03:10:15.236Z,0.00
2019-02-27T03:11:19.131Z,0.00
2019-02-27T03:12:15.215Z,0.00
2019-02-27T03:13:15.179Z,0.00
2019-02-27T03:14:17.639Z,0.00
2019-02-27T03:15:15.166Z,0.00
2019-02-27T03:16:15.153Z,0.00
2019-02-27T03:17:18.248Z,0.00
2019-02-27T03:18:15.127Z,0.00
2019-02-27T03:19:15.119Z,0.00
2019-02-27T03:20:17.709Z,0.00
2019-02-27T03:21:15.099Z,0.00
2019-02-27T03:22:15.094Z,0.00
2019-02-27T03:23:15.737Z,0.00
2019-02-27T03:24:15.056Z,0.00
2019-02-27T03:25:15.046Z,0.00
2019-02-27T03:26:16.957Z,0.00
2019-02-27T03:27:15.036Z,0.00
2019-02-27T03:28:15.024Z,0.00
2019-02-27T03:29:16.802Z,0.00
2019-02-27T03:30:14.988Z,0.00
2019-02-27T03:31:18.323Z,0.00
2019-02-27T03:32:14.998Z,0.00
2019-02-27T03:33:23.339Z,0.00
2019-02-27T03:34:15.956Z,0.00
2019-02-27T03:35:14.936Z,0.00
2019-02-27T03:36:14.936Z,0.00
2019-02-27T03:37:14.934Z,0.00
2019-02-27T03:38:14.903Z,0.00
2019-02-27T03:39:14.903Z,0.00
2019-02-27T03:40:14.878Z,0.00
2019-02-27T03:41:14.882Z,0.00
2019-02-27T03:42:14.874Z,0.00
2019-02-27T03:43:14.862Z,0.00
2019-02-27T03:44:20.247Z,0.00
2019-02-27T03:45:15.837Z,0.00
2019-02-27T03:46:14.820Z,0.00
2019-02-27T03:47:16.645Z,0.00
2019-02-27T03:48:14.801Z,0.00
2019-02-27T03:49:14.794Z,0.00
2019-02-27T03:50:15.654Z,0.00
2019-02-27T03:51:14.755Z,0.00
2019-02-27T03:52:14.782Z,0.00
2019-02-27T03:53:14.757Z,0.00
2019-02-27T03:54:20.869Z,0.00
2019-02-27T03:55:15.709Z,0.00
2019-02-27T03:56:14.706Z,0.00
2019-02-27T03:57:18.970Z,0.00
2019-02-27T03:58:15.741Z,0.00
2019-02-27T03:59:14.667Z,0.00
2019-02-27T04:00:17.991Z,0.00
2019-02-27T04:01:14.699Z,0.00
2019-02-27T04:02:14.672Z,0.00
2019-02-27T04:03:18.189Z,0.00
2019-02-27T04:04:14.618Z,0.00
2019-02-27T04:05:14.613Z,0.00
2019-02-27T04:06:20.169Z,0.00
2019-02-27T04:07:15.620Z,0.00
2019-02-27T04:08:14.576Z,0.00
2019-02-27T04:09:18.557Z,0.00
2019-02-27T04:10:15.549Z,0.00
2019-02-27T04:11:14.539Z,0.00
2019-02-27T04:12:16.627Z,0.00
2019-02-27T04:13:14.515Z,0.00
2019-02-27T04:14:14.511Z,0.00
2019-02-27T04:15:17.770Z,0.00
2019-02-27T04:16:14.524Z,0.00
2019-02-27T04:17:14.542Z,0.00
2019-02-27T04:18:14.472Z,0.00
2019-02-27T04:19:14.446Z,0.00
2019-02-27T04:20:15.573Z,0.00
2019-02-27T04:21:14.429Z,0.00
2019-02-27T04:22:14.431Z,0.00
2019-02-27T04:23:14.414Z,0.00
2019-02-27T04:24:14.389Z,0.00
2019-02-27T04:25:14.394Z,0.00
2019-02-27T04:26:14.374Z,0.00
2019-02-27T04:27:20.026Z,0.00
2019-02-27T04:28:15.339Z,0.00
2019-02-27T04:29:14.334Z,0.00
2019-02-27T04:30:15.007Z,0.00
2019-02-27T04:31:14.313Z,0.00
2019-02-27T04:32:14.335Z,0.00
2019-02-27T04:33:14.306Z,0.00
2019-02-27T04:34:14.299Z,0.00
2019-02-27T04:35:14.269Z,0.00
2019-02-27T04:36:14.267Z,0.00
2019-02-27T04:37:14.259Z,0.00
2019-02-27T04:38:14.251Z,0.00
2019-02-27T04:39:14.221Z,0.00
2019-02-27T04:40:14.220Z,0.00
2019-02-27T04:41:17.826Z,0.00
2019-02-27T04:42:14.200Z,0.00
2019-02-27T04:43:14.198Z,0.00
2019-02-27T04:44:14.193Z,0.00
2019-02-27T04:45:14.163Z,0.00
2019-02-27T04:46:14.152Z,0.00
2019-02-27T04:47:14.139Z,0.00
2019-02-27T04:48:14.145Z,0.00
2019-02-27T04:49:14.130Z,0.00
2019-02-27T04:50:14.109Z,0.00
2019-02-27T04:51:16.905Z,0.00
2019-02-27T04:52:14.083Z,0.00
2019-02-27T04:53:14.125Z,0.00
2019-02-27T04:54:14.063Z,0.00
2019-02-27T04:55:15.616Z,0.00
2019-02-27T04:56:14.054Z,0.00
2019-02-27T04:57:14.050Z,0.00
2019-02-27T04:58:14.049Z,0.00
2019-02-27T04:59:18.282Z,0.00
2019-02-27T05:00:14.006Z,0.00
2019-02-27T05:01:13.995Z,0.00
2019-02-27T05:02:14.667Z,0.00
2019-02-27T05:03:13.983Z,0.00
2019-02-27T05:04:13.952Z,0.00
2019-02-27T05:05:13.952Z,0.00
2019-02-27T05:06:14.524Z,0.00
2019-02-27T05:07:13.936Z,0.00
2019-02-27T05:08:13.937Z,0.00
2019-02-27T05:09:13.903Z,0.00
2019-02-27T05:10:13.892Z,0.00
2019-02-27T05:11:14.781Z,0.00
2019-02-27T05:12:13.866Z,0.00
2019-02-27T05:13:13.874Z,0.00
2019-02-27T05:14:13.853Z,0.00
2019-02-27T05:15:13.834Z,0.00
2019-02-27T05:16:14.730Z,0.00
2019-02-27T05:17:13.824Z,0.00
2019-02-27T05:18:13.841Z,0.00
2019-02-27T05:19:15.277Z,0.00
2019-02-27T05:20:13.788Z,0.00
2019-02-27T05:21:13.767Z,0.00
2019-02-27T05:22:13.760Z,0.00
2019-02-27T05:23:13.773Z,0.00
2019-02-27T05:24:13.752Z,0.00
2019-02-27T05:25:14.472Z,0.00
2019-02-27T05:26:13.724Z,0.00
2019-02-27T05:27:13.707Z,0.00
2019-02-27T05:28:13.687Z,0.00
2019-02-27T05:29:15.751Z,0.00
2019-02-27T05:30:13.883Z,0.00
2019-02-27T05:31:17.971Z,0.00
2019-02-27T05:32:13.663Z,0.00
2019-02-27T05:33:13.652Z,0.00
2019-02-27T05:34:13.717Z,0.00
2019-02-27T05:35:13.630Z,0.00
2019-02-27T05:36:13.621Z,4.00
2019-02-27T05:37:13.593Z,0.00
2019-02-27T05:38:13.594Z,4.00
2019-02-27T05:39:17.000Z,4.00
2019-02-27T05:40:13.580Z,4.00
2019-02-27T05:41:13.609Z,4.00
2019-02-27T05:42:13.554Z,4.00
2019-02-27T05:43:14.065Z,4.00
2019-02-27T05:44:13.544Z,8.00
2019-02-27T05:45:13.506Z,8.00
2019-02-27T05:46:15.079Z,12.00
2019-02-27T05:47:13.484Z,16.00
2019-02-27T05:48:13.486Z,12.00
2019-02-27T05:49:13.490Z,16.00
2019-02-27T05:50:13.472Z,20.00
2019-02-27T05:51:13.481Z,20.00
2019-02-27T05:52:14.367Z,24.00
2019-02-27T05:53:13.430Z,28.00
2019-02-27T05:54:13.439Z,28.00
2019-02-27T05:55:13.408Z,36.00
2019-02-27T05:56:15.827Z,40.00
2019-02-27T05:57:13.381Z,44.00
2019-02-27T05:58:13.367Z,48.00
2019-02-27T05:59:13.356Z,52.00
2019-02-27T06:00:13.373Z,60.00
2019-02-27T06:01:13.346Z,60.00
2019-02-27T06:02:13.332Z,68.00
2019-02-27T06:03:13.336Z,72.00
2019-02-27T06:04:13.327Z,80.00
2019-02-27T06:05:13.314Z,84.00
2019-02-27T06:06:13.282Z,92.00
2019-02-27T06:07:13.270Z,96.00
2019-02-27T06:08:13.277Z,108.00
2019-02-27T06:09:13.264Z,112.00
2019-02-27T06:10:13.393Z,120.00
2019-02-27T06:11:13.246Z,124.00
2019-02-27T06:12:13.221Z,132.00
2019-02-27T06:13:14.198Z,140.00
2019-02-27T06:14:13.227Z,144.00
2019-02-27T06:15:13.206Z,152.00
2019-02-27T06:16:13.186Z,160.00
2019-02-27T06:17:13.568Z,168.00
2019-02-27T06:18:13.158Z,176.00
2019-02-27T06:19:13.140Z,184.00
2019-02-27T06:20:13.161Z,188.00
2019-02-27T06:21:13.378Z,196.00
2019-02-27T06:22:13.124Z,204.00
2019-02-27T06:23:13.105Z,208.00
2019-02-27T06:24:13.095Z,212.00
2019-02-27T06:25:13.106Z,224.00
2019-02-27T06:26:13.083Z,232.00
2019-02-27T06:27:13.052Z,236.00
2019-02-27T06:28:13.097Z,240.00
2019-02-27T06:29:13.039Z,248.00
2019-02-27T06:30:13.085Z,260.00
2019-02-27T06:31:13.021Z,268.00
2019-02-27T06:32:13.001Z,276.00
2019-02-27T06:33:12.990Z,288.00
2019-02-27T06:34:13.045Z,300.00
2019-02-27T06:35:12.977Z,312.00
2019-02-27T06:36:12.961Z,320.00
2019-02-27T06:37:15.362Z,336.00
2019-02-27T06:38:12.938Z,344.00
2019-02-27T06:39:12.925Z,356.00
2019-02-27T06:40:12.935Z,368.00
2019-02-27T06:41:15.436Z,380.00
2019-02-27T06:42:12.977Z,388.00
2019-02-27T06:43:12.892Z,396.00
2019-02-27T06:44:12.874Z,404.00
2019-02-27T06:45:13.307Z,412.00
2019-02-27T06:46:12.872Z,420.00
2019-02-27T06:47:12.848Z,428.00
2019-02-27T06:48:12.840Z,436.00
2019-02-27T06:49:17.277Z,444.00
2019-02-27T06:50:13.827Z,452.00
2019-02-27T06:51:12.838Z,460.00
2019-02-27T06:52:12.822Z,468.00
2019-02-27T06:53:15.601Z,476.00
2019-02-27T06:54:12.763Z,480.00
2019-02-27T06:55:13.328Z,488.00
2019-02-27T06:56:12.998Z,492.00
2019-02-27T06:57:12.733Z,500.00
2019-02-27T06:58:14.805Z,504.00
2019-02-27T06:59:12.719Z,512.00
2019-02-27T07:00:12.706Z,520.00
2019-02-27T07:01:13.224Z,524.00
2019-02-27T07:02:12.695Z,528.00
2019-02-27T07:03:12.679Z,536.00
2019-02-27T07:04:12.650Z,544.00
2019-02-27T07:05:13.577Z,548.00
2019-02-27T07:06:12.656Z,552.00
2019-02-27T07:07:12.624Z,560.00
2019-02-27T07:08:12.623Z,564.00
2019-02-27T07:09:12.595Z,572.00
2019-02-27T07:10:12.588Z,576.00
2019-02-27T07:11:12.608Z,576.00
2019-02-27T07:12:12.586Z,584.00
2019-02-27T07:13:12.575Z,588.00
2019-02-27T07:14:12.544Z,592.00
2019-02-27T07:15:12.902Z,600.00
2019-02-27T07:16:12.546Z,600.00
2019-02-27T07:17:12.511Z,608.00
2019-02-27T07:18:12.533Z,612.00
2019-02-27T07:19:13.144Z,616.00
2019-02-27T07:20:12.498Z,620.00
2019-02-27T07:21:12.514Z,624.00
2019-02-27T07:22:12.718Z,628.00
2019-02-27T07:23:12.444Z,632.00
2019-02-27T07:24:12.434Z,632.00
2019-02-27T07:25:12.424Z,640.00
2019-02-27T07:26:13.251Z,644.00
2019-02-27T07:27:12.417Z,648.00
2019-02-27T07:28:12.390Z,648.00
2019-02-27T07:29:21.140Z,652.00
2019-02-27T07:30:13.366Z,656.00
2019-02-27T07:31:12.563Z,660.00
2019-02-27T07:32:12.368Z,664.00
2019-02-27T07:33:12.350Z,668.00
2019-02-27T07:34:14.371Z,672.00
2019-02-27T07:35:12.317Z,672.00
2019-02-27T07:36:12.311Z,672.00
2019-02-27T07:37:12.916Z,680.00
2019-02-27T07:38:12.292Z,680.00
2019-02-27T07:39:12.267Z,684.00
2019-02-27T07:40:12.422Z,688.00
2019-02-27T07:41:12.250Z,688.00
2019-02-27T07:42:12.251Z,692.00
2019-02-27T07:43:12.238Z,696.00
2019-02-27T07:44:12.218Z,688.00
2019-02-27T07:45:12.242Z,692.00
2019-02-27T07:46:12.185Z,696.00
2019-02-27T07:47:12.205Z,700.00
2019-02-27T07:48:12.183Z,704.00
2019-02-27T07:49:12.152Z,708.00
2019-02-27T07:50:12.145Z,708.00
2019-02-27T07:51:12.132Z,712.00
2019-02-27T07:52:12.133Z,712.00
2019-02-27T07:53:12.107Z,716.00
2019-02-27T07:54:12.091Z,720.00
2019-02-27T07:55:19.965Z,720.00
2019-02-27T07:56:13.089Z,720.00
2019-02-27T07:57:12.099Z,724.00
2019-02-27T07:58:12.054Z,724.00
2019-02-27T07:59:12.057Z,728.00
2019-02-27T08:00:14.993Z,732.00
2019-02-27T08:01:12.025Z,728.00
2019-02-27T08:02:12.005Z,732.00
2019-02-27T08:03:13.086Z,736.00
2019-02-27T08:04:12.001Z,736.00
2019-02-27T08:05:11.985Z,740.00
2019-02-27T08:06:11.978Z,740.00
2019-02-27T08:07:12.377Z,740.00
2019-02-27T08:08:11.967Z,744.00
2019-02-27T08:09:11.951Z,744.00
2019-02-27T08:10:11.929Z,748.00
2019-02-27T08:11:13.591Z,744.00
2019-02-27T08:12:11.910Z,748.00
2019-02-27T08:13:11.912Z,748.00
2019-02-27T08:14:12.979Z,748.00
2019-02-27T08:15:13.562Z,752.00
2019-02-27T08:16:11.871Z,752.00
2019-02-27T08:17:17.606Z,752.00
2019-02-27T08:18:12.909Z,756.00
2019-02-27T08:19:12.288Z,760.00
2019-02-27T08:20:11.812Z,760.00
2019-02-27T08:21:11.796Z,760.00
2019-02-27T08:22:11.793Z,764.00
2019-02-27T08:23:11.789Z,764.00
2019-02-27T08:24:11.759Z,768.00
2019-02-27T08:25:11.753Z,764.00
2019-02-27T08:26:11.769Z,768.00
2019-02-27T08:27:11.743Z,764.00
2019-02-27T08:28:11.747Z,768.00
2019-02-27T08:29:11.723Z,768.00
2019-02-27T08:30:11.696Z,768.00
2019-02-27T08:31:11.694Z,768.00
2019-02-27T08:32:11.679Z,772.00
2019-02-27T08:33:11.662Z,772.00
2019-02-27T08:34:11.683Z,772.00
2019-02-27T08:35:11.647Z,772.00
2019-02-27T08:36:11.646Z,772.00
2019-02-27T08:37:11.625Z,772.00
2019-02-27T08:38:11.610Z,776.00
2019-02-27T08:39:11.635Z,776.00
2019-02-27T08:40:11.627Z,780.00
2019-02-27T08:41:11.581Z,780.00
2019-02-27T08:42:11.575Z,780.00
2019-02-27T08:43:11.569Z,780.00
2019-02-27T08:44:12.293Z,780.00
2019-02-27T08:45:19.268Z,784.00
2019-02-27T08:46:12.520Z,784.00
2019-02-27T08:47:11.510Z,784.00
2019-02-27T08:48:11.529Z,784.00
2019-02-27T08:49:11.508Z,784.00
2019-02-27T08:50:11.482Z,788.00
2019-02-27T08:51:11.485Z,788.00
2019-02-27T08:52:15.257Z,788.00
2019-02-27T08:53:11.439Z,784.00
2019-02-27T08:54:11.462Z,788.00
2019-02-27T08:55:18.582Z,788.00
2019-02-27T08:56:12.964Z,792.00
2019-02-27T08:57:11.408Z,788.00
2019-02-27T08:58:11.396Z,792.00
2019-02-27T08:59:11.388Z,788.00
2019-02-27T09:00:14.172Z,792.00
2019-02-27T09:01:11.356Z,792.00
2019-02-27T09:02:11.355Z,792.00
2019-02-27T09:03:19.964Z,788.00
2019-02-27T09:04:12.432Z,796.00
2019-02-27T09:05:11.320Z,792.00
2019-02-27T09:06:11.302Z,792.00
2019-02-27T09:07:11.286Z,788.00
2019-02-27T09:08:11.291Z,792.00
2019-02-27T09:09:11.288Z,792.00
2019-02-27T09:10:11.265Z,792.00
2019-02-27T09:11:11.254Z,792.00
2019-02-27T09:12:13.388Z,792.00
2019-02-27T09:13:11.227Z,796.00
2019-02-27T09:14:12.049Z,792.00
2019-02-27T09:15:11.209Z,792.00
2019-02-27T09:16:11.190Z,792.00
2019-02-27T09:17:11.188Z,792.00
2019-02-27T09:18:11.179Z,796.00
2019-02-27T09:20:12.148Z,792.00
2019-02-27T09:21:11.146Z,796.00
2019-02-27T09:22:11.130Z,792.00
2019-02-27T09:23:11.103Z,796.00
2019-02-27T09:24:11.120Z,792.00
2019-02-27T09:25:11.089Z,796.00
2019-02-27T09:26:11.077Z,792.00
2019-02-27T09:27:11.078Z,792.00
2019-02-27T09:28:11.066Z,796.00
2019-02-27T09:29:11.045Z,796.00
2019-02-27T09:30:11.056Z,796.00
2019-02-27T09:31:12.175Z,796.00
2019-02-27T09:32:11.665Z,792.00
2019-02-27T09:33:11.011Z,796.00
2019-02-27T09:34:11.024Z,792.00
2019-02-27T09:35:11.031Z,796.00
2019-02-27T09:36:11.051Z,796.00
2019-02-27T09:37:10.976Z,796.00
2019-02-27T09:38:10.954Z,796.00
2019-02-27T09:39:10.947Z,792.00
2019-02-27T09:40:10.943Z,796.00
2019-02-27T09:41:12.409Z,796.00
2019-02-27T09:42:10.908Z,792.00
2019-02-27T09:43:11.746Z,796.00
2019-02-27T09:44:10.887Z,800.00
2019-02-27T09:45:11.131Z,800.00
2019-02-27T09:46:10.861Z,800.00
2019-02-27T09:47:10.871Z,800.00
2019-02-27T09:48:10.835Z,800.00
2019-02-27T09:49:10.835Z,800.00
2019-02-27T09:50:11.887Z,796.00
2019-02-27T09:51:10.800Z,800.00
2019-02-27T09:52:10.789Z,796.00
2019-02-27T09:53:10.804Z,800.00
2019-02-27T09:54:10.969Z,796.00
2019-02-27T09:55:10.764Z,800.00
2019-02-27T09:56:11.626Z,800.00
2019-02-27T09:57:10.751Z,796.00
2019-02-27T09:58:11.475Z,800.00
2019-02-27T09:59:10.715Z,800.00
2019-02-27T10:00:10.732Z,800.00
2019-02-27T10:01:10.697Z,804.00
2019-02-27T10:02:12.518Z,804.00
2019-02-27T10:03:10.668Z,804.00
2019-02-27T10:04:10.660Z,804.00
2019-02-27T10:05:12.431Z,804.00
2019-02-27T10:06:10.639Z,800.00
2019-02-27T10:07:10.644Z,800.00
2019-02-27T10:08:10.614Z,800.00
2019-02-27T10:09:10.602Z,796.00
2019-02-27T10:10:11.008Z,800.00
2019-02-27T10:11:10.586Z,800.00
2019-02-27T10:12:10.576Z,800.00
2019-02-27T10:13:10.563Z,800.00
2019-02-27T10:14:10.548Z,800.00
2019-02-27T10:15:10.613Z,804.00
2019-02-27T10:16:10.528Z,800.00
2019-02-27T10:17:10.537Z,804.00
2019-02-27T10:18:10.499Z,800.00
2019-02-27T10:19:10.494Z,804.00
2019-02-27T10:20:10.516Z,804.00
2019-02-27T10:21:12.042Z,800.00
2019-02-27T10:22:10.492Z,800.00
2019-02-27T10:23:10.462Z,800.00
2019-02-27T10:24:10.436Z,800.00
2019-02-27T10:25:10.448Z,800.00
2019-02-27T10:26:10.418Z,800.00
2019-02-27T10:27:10.412Z,800.00
2019-02-27T10:28:10.758Z,800.00
2019-02-27T10:29:10.955Z,804.00
2019-02-27T10:30:11.740Z,796.00
2019-02-27T10:31:10.367Z,800.00
2019-02-27T10:32:10.350Z,800.00
2019-02-27T10:33:11.150Z,796.00
2019-02-27T10:34:10.330Z,800.00
2019-02-27T10:35:10.333Z,800.00
2019-02-27T10:36:10.768Z,800.00
2019-02-27T10:37:12.899Z,804.00
2019-02-27T10:38:10.294Z,800.00
2019-02-27T10:39:10.307Z,804.00
2019-02-27T10:40:11.461Z,804.00
2019-02-27T10:41:10.250Z,800.00
2019-02-27T10:42:10.257Z,808.00
2019-02-27T10:43:10.247Z,800.00
2019-02-27T10:44:10.230Z,800.00
2019-02-27T10:45:10.711Z,804.00
2019-02-27T10:46:10.204Z,804.00
2019-02-27T10:47:10.181Z,804.00
2019-02-27T10:48:12.570Z,804.00
2019-02-27T10:49:10.154Z,808.00
2019-02-27T10:50:10.143Z,804.00
2019-02-27T10:51:10.226Z,808.00
2019-02-27T10:52:10.141Z,808.00
2019-02-27T10:53:10.112Z,808.00
2019-02-27T10:54:10.100Z,808.00
2019-02-27T10:55:11.368Z,804.00
2019-02-27T10:56:10.092Z,812.00
2019-02-27T10:57:10.069Z,808.00
2019-02-27T10:58:13.011Z,808.00
2019-02-27T10:59:10.060Z,812.00
2019-02-27T11:00:10.044Z,808.00
2019-02-27T11:01:10.051Z,812.00
2019-02-27T11:02:12.503Z,812.00
2019-02-27T11:03:10.004Z,812.00
2019-02-27T11:04:09.989Z,812.00
2019-02-27T11:05:10.004Z,808.00
2019-02-27T11:06:09.980Z,808.00
2019-02-27T11:07:10.019Z,816.00
2019-02-27T11:08:09.960Z,808.00
2019-02-27T11:09:09.932Z,808.00
2019-02-27T11:10:09.927Z,812.00
2019-02-27T11:11:09.918Z,808.00
2019-02-27T11:12:09.922Z,812.00
2019-02-27T11:13:09.887Z,808.00
2019-02-27T11:14:09.876Z,812.00
2019-02-27T11:15:09.870Z,812.00
2019-02-27T11:16:09.862Z,808.00
2019-02-27T11:17:09.890Z,808.00
2019-02-27T11:18:09.848Z,812.00
2019-02-27T11:19:09.830Z,812.00
2019-02-27T11:20:09.815Z,812.00
2019-02-27T11:21:09.805Z,816.00
2019-02-27T11:22:09.807Z,812.00
2019-02-27T11:23:09.787Z,816.00
2019-02-27T11:24:09.776Z,816.00
2019-02-27T11:25:09.764Z,816.00
2019-02-27T11:26:09.814Z,820.00
2019-02-27T11:27:09.762Z,820.00
2019-02-27T11:28:09.727Z,820.00
2019-02-27T11:29:09.727Z,816.00
2019-02-27T11:30:09.699Z,820.00
2019-02-27T11:31:10.962Z,816.00
2019-02-27T11:32:09.703Z,812.00
2019-02-27T11:33:09.662Z,816.00
2019-02-27T11:34:09.665Z,820.00
2019-02-27T11:35:09.644Z,816.00
2019-02-27T11:36:09.630Z,820.00
2019-02-27T11:37:12.875Z,820.00
2019-02-27T11:38:09.653Z,816.00
2019-02-27T11:39:09.600Z,816.00
2019-02-27T11:40:09.596Z,816.00
2019-02-27T11:41:09.590Z,816.00
2019-02-27T11:42:09.569Z,816.00
2019-02-27T11:43:09.582Z,816.00
2019-02-27T11:44:14.152Z,816.00
2019-02-27T11:45:09.541Z,816.00
2019-02-27T11:46:09.533Z,816.00
2019-02-27T11:47:11.370Z,824.00
2019-02-27T11:48:09.525Z,816.00
2019-02-27T11:49:09.503Z,816.00
2019-02-27T11:50:09.486Z,816.00
2019-02-27T11:51:09.470Z,816.00
2019-02-27T11:52:09.453Z,816.00
2019-02-27T11:53:09.475Z,816.00
2019-02-27T11:54:09.439Z,816.00
2019-02-27T11:55:09.417Z,812.00
2019-02-27T11:56:09.426Z,812.00
2019-02-27T11:57:09.403Z,816.00
2019-02-27T11:58:09.411Z,816.00
2019-02-27T11:59:12.552Z,816.00
2019-02-27T12:00:09.374Z,816.00
2019-02-27T12:01:09.352Z,816.00
2019-02-27T12:02:09.359Z,820.00
2019-02-27T12:03:11.063Z,820.00
2019-02-27T12:04:09.333Z,816.00
2019-02-27T12:05:09.323Z,820.00
2019-02-27T12:06:09.293Z,824.00
2019-02-27T12:07:09.304Z,828.00
2019-02-27T12:08:11.323Z,832.00
2019-02-27T12:09:09.277Z,836.00
2019-02-27T12:10:09.621Z,824.00
2019-02-27T12:11:09.714Z,832.00
2019-02-27T12:12:10.474Z,840.00
2019-02-27T12:13:09.234Z,836.00
2019-02-27T12:14:09.740Z,836.00
2019-02-27T12:15:09.787Z,840.00
2019-02-27T12:16:10.647Z,844.00
2019-02-27T12:17:09.187Z,848.00
2019-02-27T12:18:09.171Z,852.00
2019-02-27T12:19:09.512Z,852.00
2019-02-27T12:20:09.147Z,848.00
2019-02-27T12:21:09.142Z,852.00
2019-02-27T12:22:09.157Z,848.00
2019-02-27T12:23:10.105Z,848.00
2019-02-27T12:24:09.124Z,844.00
2019-02-27T12:25:09.099Z,852.00
2019-02-27T12:26:09.070Z,848.00
2019-02-27T12:27:11.845Z,848.00
2019-02-27T12:28:10.090Z,852.00
2019-02-27T12:29:09.059Z,848.00
2019-02-27T12:30:09.057Z,848.00
2019-02-27T12:31:11.068Z,856.00
2019-02-27T12:32:09.009Z,852.00
2019-02-27T12:33:09.009Z,848.00
2019-02-27T12:34:09.023Z,844.00
2019-02-27T12:35:10.877Z,844.00
2019-02-27T12:36:09.065Z,844.00
2019-02-27T12:37:19.144Z,848.00
2019-02-27T12:38:11.403Z,848.00
2019-02-27T12:39:08.924Z,844.00
2019-02-27T12:40:08.937Z,848.00
2019-02-27T12:41:08.911Z,848.00
2019-02-27T12:42:08.903Z,840.00
2019-02-27T12:43:08.886Z,848.00
2019-02-27T12:44:08.889Z,848.00
2019-02-27T12:45:08.881Z,848.00
2019-02-27T12:46:09.746Z,848.00
2019-02-27T12:47:08.846Z,840.00
2019-02-27T12:48:08.836Z,840.00
2019-02-27T12:49:08.902Z,844.00
2019-02-27T12:50:08.832Z,836.00
2019-02-27T12:51:08.814Z,836.00